Time;durP1;ratioP1;P1;durP2;ratioP2;P2;SDS_P1;SDS_P2;PMS_P1;PMS_P2;Temp;Humidity;BMP_temperature;BMP_pressure;BME280_temperature;BME280_humidity;BME280_pressure;Samples;Min_cycle;Max_cycle;Signal;HPM_P1;HPM_P2
2021/04/18 00:01:53;;;;;;;9.83;3.60;;;8.30;99.90;;;;;;5024669;28;20219;-49
2021/04/18 00:04:19;;;;;;;5.03;3.40;;;8.20;99.90;;;;;;5021669;28;20231;-50
2021/04/18 00:06:46;;;;;;;8.03;4.10;;;8.20;99.90;;;;;;5011720;28;20215;-48
2021/04/18 00:09:13;;;;;;;5.63;3.67;;;8.20;99.90;;;;;;5028652;28;20579;-49
2021/04/18 00:11:39;;;;;;;5.17;3.47;;;8.20;99.90;;;;;;5021757;28;20222;-49
2021/04/18 00:14:06;;;;;;;5.73;3.83;;;8.20;99.90;;;;;;5019598;28;20196;-49
2021/04/18 00:16:33;;;;;;;8.47;4.10;;;8.20;99.90;;;;;;5018524;28;20204;-48
2021/04/18 00:18:59;;;;;;;5.10;3.87;;;8.20;99.90;;;;;;5023921;28;20204;-47
2021/04/18 00:21:25;;;;;;;6.00;3.97;;;8.20;99.90;;;;;;5006181;28;20307;-49
2021/04/18 00:23:51;;;;;;;10.67;3.67;;;8.20;99.90;;;;;;5018020;28;20200;-47
2021/04/18 00:26:18;;;;;;;5.73;3.13;;;8.20;99.90;;;;;;5021230;28;20692;-48
2021/04/18 00:28:45;;;;;;;7.30;3.90;;;8.20;99.90;;;;;;5013317;28;20283;-46
2021/04/18 00:31:11;;;;;;;5.43;3.40;;;8.20;99.90;;;;;;5023178;28;20216;-48
2021/04/18 00:33:37;;;;;;;8.57;4.00;;;8.20;99.90;;;;;;5018531;28;20188;-47
2021/04/18 00:36:04;;;;;;;7.20;3.80;;;8.10;99.90;;;;;;5019528;28;20627;-46
2021/04/18 00:38:30;;;;;;;9.87;3.57;;;8.10;99.90;;;;;;5009406;28;20205;-46
2021/04/18 00:40:57;;;;;;;8.70;4.33;;;8.10;99.90;;;;;;5023803;28;20245;-46
2021/04/18 00:43:24;;;;;;;5.97;3.83;;;8.10;99.90;;;;;;5016297;28;20699;-51
2021/04/18 00:45:50;;;;;;;7.17;4.00;;;8.10;99.90;;;;;;5018719;28;20202;-47
2021/04/18 00:48:16;;;;;;;7.43;3.97;;;8.10;99.90;;;;;;5020827;28;20206;-50
2021/04/18 00:50:42;;;;;;;8.33;4.00;;;8.10;99.90;;;;;;5021022;28;20948;-47
2021/04/18 00:53:09;;;;;;;11.07;3.97;;;8.00;99.90;;;;;;5012329;28;20214;-52
2021/04/18 00:55:37;;;;;;;5.33;3.70;;;8.00;99.90;;;;;;5016256;28;20220;-50
2021/04/18 00:58:05;;;;;;;5.57;3.27;;;8.00;99.90;;;;;;5017045;28;20208;-51
2021/04/18 01:00:33;;;;;;;6.13;3.97;;;8.00;99.90;;;;;;5008471;28;20219;-48
2021/04/18 01:02:59;;;;;;;5.57;3.80;;;8.00;99.90;;;;;;5017311;28;20207;-47
2021/04/18 01:05:27;;;;;;;8.07;3.90;;;8.00;99.90;;;;;;5015935;28;20200;-51
2021/04/18 01:07:53;;;;;;;6.20;3.67;;;8.00;99.90;;;;;;5022680;28;20207;-48
2021/04/18 01:10:20;;;;;;;4.30;3.57;;;7.90;99.90;;;;;;5004649;28;20224;-49
2021/04/18 01:12:47;;;;;;;5.63;3.50;;;7.90;99.90;;;;;;5021666;28;20259;-48
2021/04/18 01:15:15;;;;;;;5.67;3.43;;;7.90;99.90;;;;;;5020628;28;20274;-47
2021/04/18 01:17:42;;;;;;;4.70;3.70;;;7.90;99.90;;;;;;5010380;28;20207;-50
2021/04/18 01:20:13;;;;;;;7.17;3.50;;;7.90;99.90;;;;;;5020254;28;20300;-48
2021/04/18 01:22:40;;;;;;;9.53;3.40;;;7.90;99.90;;;;;;5000801;28;20209;-53
2021/04/18 01:25:25;;;;;;;5.33;3.60;;;7.90;99.90;;;;;;5013347;28;20215;-51
2021/04/18 01:28:18;;;;;;;5.77;3.73;;;7.90;99.90;;;;;;5020946;28;20228;-47
2021/04/18 01:30:44;;;;;;;6.53;3.80;;;7.80;99.90;;;;;;5013808;28;20225;-50
2021/04/18 01:33:10;;;;;;;8.60;3.80;;;7.80;99.90;;;;;;5019644;28;20207;-48
2021/04/18 01:35:36;;;;;;;5.97;3.43;;;7.80;99.90;;;;;;5021997;28;20219;-53
2021/04/18 01:38:04;;;;;;;6.93;3.63;;;7.80;99.90;;;;;;5020819;28;20608;-51
2021/04/18 01:40:30;;;;;;;4.87;3.33;;;7.70;99.90;;;;;;5013289;28;20648;-47
2021/04/18 01:42:57;;;;;;;6.70;4.07;;;7.70;99.90;;;;;;5019717;28;20192;-47
2021/04/18 01:45:24;;;;;;;7.30;3.87;;;7.70;99.90;;;;;;5019512;28;20282;-49
2021/04/18 01:47:55;;;;;;;6.03;3.63;;;7.70;99.90;;;;;;5012789;28;20203;-50
2021/04/18 01:50:21;;;;;;;6.40;3.40;;;7.70;99.90;;;;;;5021148;28;20228;-47
2021/04/18 01:52:48;;;;;;;4.67;3.30;;;7.70;99.90;;;;;;5018683;28;20239;-51
2021/04/18 01:55:18;;;;;;;5.97;3.47;;;7.70;99.90;;;;;;5007875;28;20283;-49
2021/04/18 01:57:46;;;;;;;8.00;3.40;;;7.60;99.90;;;;;;5009119;28;20704;-53
2021/04/18 02:00:22;;;;;;;5.07;2.83;;;7.60;99.90;;;;;;5015264;28;20222;-49
2021/04/18 02:02:58;;;;;;;8.67;3.57;;;7.50;99.90;;;;;;5014381;28;20959;-49
2021/04/18 02:05:38;;;;;;;10.87;3.40;;;7.50;99.90;;;;;;5020014;28;20254;-49
2021/04/18 02:08:14;;;;;;;9.17;3.80;;;7.50;99.90;;;;;;5020559;28;20703;-48
2021/04/18 02:10:41;;;;;;;6.67;3.47;;;7.40;99.90;;;;;;5010861;28;20224;-50
2021/04/18 02:13:09;;;;;;;4.93;3.60;;;7.40;99.90;;;;;;5020042;28;20775;-49
2021/04/18 02:15:48;;;;;;;3.50;3.20;;;7.30;99.90;;;;;;5019219;28;20226;-50
2021/04/18 02:18:15;;;;;;;6.03;3.07;;;7.30;99.90;;;;;;5018698;28;20254;-47
2021/04/18 02:20:42;;;;;;;5.20;3.33;;;7.20;99.90;;;;;;5019465;28;20224;-51
2021/04/18 02:23:09;;;;;;;11.60;3.53;;;7.20;99.90;;;;;;5024771;28;20184;-51
2021/04/18 02:25:36;;;;;;;6.13;3.20;;;7.20;99.90;;;;;;5021589;28;20200;-49
2021/04/18 02:28:04;;;;;;;8.20;3.47;;;7.10;99.90;;;;;;5019446;28;20606;-47
2021/04/18 02:30:34;;;;;;;8.07;3.80;;;7.10;99.90;;;;;;5022016;28;20239;-47
2021/04/18 02:33:01;;;;;;;4.97;2.83;;;7.00;99.90;;;;;;5012792;28;20197;-47
2021/04/18 02:35:28;;;;;;;8.80;3.37;;;7.00;99.90;;;;;;5026091;28;20215;-51
2021/04/18 02:37:54;;;;;;;5.17;3.27;;;6.90;99.90;;;;;;5020237;28;20290;-49
2021/04/18 02:40:21;;;;;;;5.20;3.20;;;6.90;99.90;;;;;;5024751;28;20219;-47
2021/04/18 02:42:48;;;;;;;5.10;3.07;;;6.80;99.90;;;;;;5008292;28;20236;-49
2021/04/18 02:45:17;;;;;;;4.73;2.80;;;6.80;99.90;;;;;;5024255;28;20677;-49
2021/04/18 02:47:46;;;;;;;4.53;2.93;;;6.80;99.90;;;;;;5020228;28;20264;-52
2021/04/18 02:50:14;;;;;;;6.93;3.37;;;6.70;99.90;;;;;;5023272;28;20235;-48
2021/04/18 02:52:41;;;;;;;5.97;3.00;;;6.70;99.90;;;;;;5018007;28;20199;-48
2021/04/18 02:55:08;;;;;;;4.67;3.00;;;6.70;99.90;;;;;;5024193;28;20875;-48
2021/04/18 02:57:47;;;;;;;4.67;3.13;;;6.60;99.90;;;;;;5005003;28;20585;-52
2021/04/18 03:00:14;;;;;;;5.50;2.60;;;6.60;99.90;;;;;;5023333;28;20724;-47
2021/04/18 03:02:41;;;;;;;2.90;2.47;;;6.60;99.90;;;;;;5023175;28;20207;-52
2021/04/18 03:05:08;;;;;;;8.63;2.73;;;6.60;99.90;;;;;;5017475;28;20200;-48
2021/04/18 03:07:35;;;;;;;5.30;2.80;;;6.50;99.90;;;;;;5023299;28;20291;-52
2021/04/18 03:10:06;;;;;;;3.33;2.70;;;6.50;99.90;;;;;;5018481;28;20352;-51
2021/04/18 03:12:34;;;;;;;5.27;2.47;;;6.40;99.90;;;;;;5023764;28;20196;-50
2021/04/18 03:15:02;;;;;;;10.80;3.27;;;6.40;99.90;;;;;;5013318;28;20260;-47
2021/04/18 03:17:29;;;;;;;5.37;3.03;;;6.40;99.90;;;;;;5023309;28;20216;-49
2021/04/18 03:20:07;;;;;;;5.20;3.00;;;6.30;99.90;;;;;;5019649;28;20281;-47
2021/04/18 03:22:35;;;;;;;3.50;2.47;;;6.30;99.90;;;;;;5023535;28;20203;-51
2021/04/18 03:25:02;;;;;;;7.57;3.20;;;6.30;99.90;;;;;;5020825;28;20877;-48
2021/04/18 03:27:29;;;;;;;4.33;2.60;;;6.20;99.90;;;;;;5021973;28;20208;-49
2021/04/18 03:29:59;;;;;;;6.70;2.70;;;6.20;99.90;;;;;;5012699;28;20708;-48
2021/04/18 03:32:26;;;;;;;5.30;2.57;;;6.20;99.90;;;;;;5018119;28;20242;-47
2021/04/18 03:34:56;;;;;;;3.00;2.70;;;6.20;99.90;;;;;;5014910;28;21039;-49
2021/04/18 03:37:23;;;;;;;4.07;2.60;;;6.10;99.90;;;;;;5021179;28;20211;-49
2021/04/18 03:39:49;;;;;;;5.07;3.00;;;6.10;99.90;;;;;;5021502;28;20224;-49
2021/04/18 03:42:16;;;;;;;5.70;3.00;;;6.00;99.90;;;;;;5024798;28;20279;-48
2021/04/18 03:44:42;;;;;;;5.83;2.93;;;6.00;99.90;;;;;;5011730;28;20710;-47
2021/04/18 03:47:08;;;;;;;5.63;2.90;;;6.00;99.90;;;;;;5017287;28;20909;-52
2021/04/18 03:49:49;;;;;;;4.50;3.17;;;6.00;99.90;;;;;;5016285;28;20219;-53
2021/04/18 03:52:20;;;;;;;6.33;2.80;;;5.90;99.90;;;;;;5023867;28;20216;-47
2021/04/18 03:54:47;;;;;;;6.73;2.70;;;5.90;99.90;;;;;;5018281;28;20282;-49
2021/04/18 03:57:14;;;;;;;3.93;2.90;;;5.90;99.90;;;;;;5022656;28;20925;-47
2021/04/18 03:59:40;;;;;;;4.57;2.40;;;5.90;99.90;;;;;;5020461;28;20223;-46
2021/04/18 04:02:06;;;;;;;4.00;2.90;;;5.80;99.90;;;;;;5009337;28;20203;-51
2021/04/18 04:04:33;;;;;;;4.47;2.30;;;5.80;99.90;;;;;;5026592;28;20188;-48
2021/04/18 04:07:00;;;;;;;3.43;2.40;;;5.80;99.90;;;;;;5009251;28;20966;-48
2021/04/18 04:09:29;;;;;;;7.77;2.57;;;5.80;99.90;;;;;;5019812;28;20217;-47
2021/04/18 04:11:58;;;;;;;9.13;3.07;;;5.80;99.90;;;;;;5011746;28;20192;-46
2021/04/18 04:14:30;;;;;;;4.57;2.50;;;5.80;99.90;;;;;;5021862;28;20196;-46
2021/04/18 04:16:59;;;;;;;3.63;2.30;;;5.80;99.90;;;;;;5007929;28;20204;-47
2021/04/18 04:19:34;;;;;;;8.13;3.20;;;5.70;99.90;;;;;;5020205;28;20610;-46
2021/04/18 04:22:21;;;;;;;10.80;3.00;;;5.70;99.90;;;;;;5016865;28;20212;-48
2021/04/18 04:24:52;;;;;;;8.10;2.57;;;5.70;99.90;;;;;;5021504;28;20204;-48
2021/04/18 04:27:19;;;;;;;6.73;2.33;;;5.70;99.90;;;;;;5019366;28;20212;-49
2021/04/18 04:29:45;;;;;;;3.83;2.77;;;5.70;99.90;;;;;;5013630;28;20219;-48
2021/04/18 04:32:12;;;;;;;4.00;2.70;;;5.60;99.90;;;;;;5013527;28;20290;-50
2021/04/18 04:34:38;;;;;;;4.40;2.53;;;5.60;99.90;;;;;;5020542;28;20192;-49
2021/04/18 04:37:05;;;;;;;5.33;2.33;;;5.60;99.90;;;;;;5012278;28;20196;-53
2021/04/18 04:39:31;;;;;;;4.17;2.90;;;5.60;99.90;;;;;;5021366;28;20256;-51
2021/04/18 04:41:57;;;;;;;7.00;2.70;;;5.60;99.90;;;;;;5017241;28;20217;-48
2021/04/18 04:44:24;;;;;;;5.93;2.03;;;5.60;99.90;;;;;;5018941;28;20196;-48
2021/04/18 04:46:50;;;;;;;8.23;2.70;;;5.60;99.90;;;;;;5007416;28;20215;-54
2021/04/18 04:49:16;;;;;;;4.70;2.57;;;5.60;99.90;;;;;;5015417;28;20200;-52
2021/04/18 04:51:42;;;;;;;6.03;2.90;;;5.60;99.90;;;;;;5014299;28;21000;-51
2021/04/18 04:54:09;;;;;;;3.90;1.93;;;5.60;99.90;;;;;;5023908;28;20291;-49
2021/04/18 04:56:35;;;;;;;6.43;2.60;;;5.50;99.90;;;;;;5018020;28;20222;-51
2021/04/18 04:59:01;;;;;;;5.83;2.70;;;5.60;99.90;;;;;;5013373;28;20203;-54
2021/04/18 05:01:28;;;;;;;6.73;3.20;;;5.60;99.90;;;;;;5022382;28;20593;-48
2021/04/18 05:03:54;;;;;;;8.43;3.13;;;5.60;99.90;;;;;;5007867;28;20199;-50
2021/04/18 05:06:21;;;;;;;4.47;2.57;;;5.60;99.90;;;;;;5022141;28;20207;-50
2021/04/18 05:08:47;;;;;;;7.37;2.60;;;5.70;99.90;;;;;;5009413;28;20200;-50
2021/04/18 05:11:13;;;;;;;7.23;2.70;;;5.70;99.90;;;;;;5023642;28;20416;-50
2021/04/18 05:13:40;;;;;;;4.70;2.33;;;5.70;99.90;;;;;;5015865;28;20275;-51
2021/04/18 05:16:06;;;;;;;6.57;2.53;;;5.70;99.90;;;;;;5022562;28;20220;-49
2021/04/18 05:18:33;;;;;;;5.67;2.40;;;5.70;99.90;;;;;;5007022;28;20330;-51
2021/04/18 05:20:59;;;;;;;5.40;2.50;;;5.70;99.90;;;;;;5020707;28;20302;-50
2021/04/18 05:23:27;;;;;;;7.23;2.37;;;5.70;99.90;;;;;;5017553;28;20575;-54
2021/04/18 05:25:53;;;;;;;5.70;2.67;;;5.80;99.90;;;;;;5020874;28;20195;-53
2021/04/18 05:28:19;;;;;;;4.60;2.50;;;5.80;99.90;;;;;;5022639;28;20545;-50
2021/04/18 05:30:46;;;;;;;8.43;3.07;;;5.80;99.90;;;;;;5009061;28;20467;-52
2021/04/18 05:33:12;;;;;;;6.03;3.00;;;5.80;99.90;;;;;;5014551;28;20200;-53
2021/04/18 05:35:39;;;;;;;5.17;2.77;;;5.90;99.90;;;;;;5003004;28;20246;-53
2021/04/18 05:38:05;;;;;;;6.87;2.63;;;5.90;99.90;;;;;;5020668;28;20208;-50
2021/04/18 05:40:31;;;;;;;6.10;2.23;;;6.00;99.90;;;;;;5014672;28;20278;-49
2021/04/18 05:42:57;;;;;;;4.67;2.47;;;6.00;99.90;;;;;;5016449;28;20874;-52
2021/04/18 05:45:24;;;;;;;6.47;3.20;;;6.10;99.90;;;;;;5015962;28;20270;-51
2021/04/18 05:47:50;;;;;;;8.23;2.97;;;6.10;99.90;;;;;;5019033;28;20187;-51
2021/04/18 05:50:16;;;;;;;4.60;2.40;;;6.20;99.90;;;;;;5002953;28;20231;-50
2021/04/18 05:52:44;;;;;;;5.80;2.67;;;6.30;99.90;;;;;;5020080;28;20196;-52
2021/04/18 05:55:11;;;;;;;6.73;2.53;;;6.30;99.90;;;;;;5018967;28;20218;-52
2021/04/18 05:57:37;;;;;;;9.03;2.90;;;6.30;99.90;;;;;;5021686;28;20246;-52
2021/04/18 06:00:04;;;;;;;6.63;3.37;;;6.40;99.90;;;;;;5019139;28;20228;-54
2021/04/18 06:02:38;;;;;;;8.67;2.67;;;6.50;99.90;;;;;;5021235;28;20203;-52
2021/04/18 06:05:05;;;;;;;7.53;2.97;;;6.50;99.90;;;;;;5019509;28;20196;-54
2021/04/18 06:07:32;;;;;;;7.23;2.80;;;6.60;99.90;;;;;;5011872;28;20293;-50
2021/04/18 06:09:58;;;;;;;6.80;3.00;;;6.60;99.90;;;;;;5021798;28;20228;-54
2021/04/18 06:12:25;;;;;;;6.97;3.13;;;6.70;99.90;;;;;;5024575;28;20257;-53
2021/04/18 06:14:52;;;;;;;9.80;3.03;;;6.70;99.90;;;;;;5016465;28;20200;-54
2021/04/18 06:17:18;;;;;;;6.90;2.93;;;6.80;99.90;;;;;;5024846;28;20234;-52
2021/04/18 06:19:44;;;;;;;8.80;2.93;;;6.80;99.90;;;;;;5020427;28;20227;-52
2021/04/18 06:22:11;;;;;;;7.17;2.90;;;6.90;99.90;;;;;;5011908;28;20261;-53
2021/04/18 06:24:37;;;;;;;6.70;2.90;;;7.00;99.90;;;;;;5021661;28;20209;-51
2021/04/18 06:27:04;;;;;;;9.00;2.97;;;7.00;99.90;;;;;;5018801;28;20220;-53
2021/04/18 06:29:30;;;;;;;3.97;2.50;;;7.10;99.90;;;;;;5015600;28;20214;-49
2021/04/18 06:31:56;;;;;;;6.43;2.77;;;7.10;99.90;;;;;;5014419;28;21040;-50
2021/04/18 06:34:23;;;;;;;10.17;3.10;;;7.10;99.90;;;;;;5019029;28;20710;-50
2021/04/18 06:36:49;;;;;;;8.60;3.00;;;7.10;99.90;;;;;;5008826;28;20219;-52
2021/04/18 06:39:16;;;;;;;9.23;3.00;;;7.10;99.90;;;;;;5026123;28;20258;-54
2021/04/18 06:41:48;;;;;;;5.80;2.60;;;7.10;99.90;;;;;;5010120;28;20220;-53
2021/04/18 06:44:16;;;;;;;9.80;3.13;;;7.10;99.90;;;;;;5024818;28;20665;-51
2021/04/18 06:46:43;;;;;;;4.77;2.47;;;7.20;99.90;;;;;;5015385;28;20196;-55
2021/04/18 06:49:09;;;;;;;7.40;2.47;;;7.20;99.90;;;;;;5017596;28;20277;-53
2021/04/18 06:51:36;;;;;;;7.90;3.17;;;7.30;99.90;;;;;;5017386;28;20232;-53
2021/04/18 06:54:03;;;;;;;8.00;3.30;;;7.30;99.90;;;;;;5016718;28;20204;-55
2021/04/18 06:56:29;;;;;;;9.10;3.13;;;7.40;99.90;;;;;;5016555;28;20224;-53
2021/04/18 06:58:57;;;;;;;13.57;3.17;;;7.50;99.90;;;;;;5017165;28;20200;-54
2021/04/18 07:01:24;;;;;;;9.77;3.37;;;7.60;99.90;;;;;;5017721;28;20231;-54
2021/04/18 07:04:09;;;;;;;5.43;2.70;;;7.70;99.90;;;;;;5016640;28;20196;-52
2021/04/18 07:06:39;;;;;;;7.23;3.23;;;7.90;99.90;;;;;;5011253;28;20580;-53
2021/04/18 07:09:06;;;;;;;7.87;3.10;;;7.90;99.90;;;;;;5006351;28;20214;-49
2021/04/18 07:11:43;;;;;;;8.80;3.03;;;8.00;99.90;;;;;;5024853;28;20230;-53
2021/04/18 07:14:19;;;;;;;5.77;2.90;;;8.10;99.90;;;;;;5017602;28;20231;-51
2021/04/18 07:16:47;;;;;;;9.63;2.83;;;8.10;99.90;;;;;;5015827;28;20278;-53
2021/04/18 07:19:24;;;;;;;6.37;2.83;;;8.20;99.90;;;;;;5018776;28;20208;-52
2021/04/18 07:21:53;;;;;;;4.40;2.73;;;8.30;99.90;;;;;;5015673;28;20208;-50
2021/04/18 07:24:19;;;;;;;8.10;3.00;;;8.30;99.90;;;;;;5003536;28;20238;-54
2021/04/18 07:26:56;;;;;;;8.83;3.13;;;8.30;99.90;;;;;;5019496;28;20200;-53
2021/04/18 07:29:23;;;;;;;7.77;3.23;;;8.50;99.90;;;;;;5017980;28;20191;-55
2021/04/18 07:31:51;;;;;;;5.50;2.80;;;8.50;99.90;;;;;;5020841;28;20226;-53
2021/04/18 07:34:19;;;;;;;6.40;3.43;;;8.60;99.90;;;;;;5017812;28;20191;-54
2021/04/18 07:36:47;;;;;;;7.57;3.20;;;8.60;99.90;;;;;;5024928;28;20224;-52
2021/04/18 07:39:15;;;;;;;6.83;3.33;;;8.60;99.90;;;;;;5017399;28;20275;-53
2021/04/18 07:41:43;;;;;;;10.10;3.63;;;8.60;99.90;;;;;;5012356;28;20246;-54
2021/04/18 07:44:14;;;;;;;4.17;2.90;;;8.60;99.90;;;;;;5010795;28;20188;-50
2021/04/18 07:46:44;;;;;;;5.17;2.93;;;8.60;99.90;;;;;;5024400;28;20281;-51
2021/04/18 07:49:13;;;;;;;6.67;2.87;;;8.70;99.90;;;;;;5014973;28;20203;-53
2021/04/18 07:51:39;;;;;;;7.57;4.03;;;8.90;99.90;;;;;;5022376;28;20227;-54
2021/04/18 07:54:06;;;;;;;8.00;3.53;;;9.10;99.90;;;;;;5020813;28;20188;-48
2021/04/18 07:56:32;;;;;;;8.20;3.57;;;9.20;99.90;;;;;;5014673;28;20226;-51
2021/04/18 07:58:59;;;;;;;6.03;3.30;;;9.20;99.90;;;;;;5014887;28;21250;-49
2021/04/18 08:01:25;;;;;;;5.33;3.30;;;9.30;99.90;;;;;;5021314;28;20889;-54
2021/04/18 08:03:51;;;;;;;4.23;2.83;;;9.40;99.90;;;;;;5017175;28;20230;-52
2021/04/18 08:06:19;;;;;;;8.00;3.13;;;9.40;99.90;;;;;;5017429;28;20212;-51
2021/04/18 08:08:48;;;;;;;7.60;3.37;;;9.40;99.90;;;;;;5017119;28;20212;-49
2021/04/18 08:11:17;;;;;;;5.40;3.17;;;9.50;99.90;;;;;;5021232;28;20869;-52
2021/04/18 08:13:47;;;;;;;7.57;3.33;;;9.50;99.90;;;;;;5008353;28;20228;-53
2021/04/18 08:16:14;;;;;;;8.27;3.27;;;9.70;99.90;;;;;;5014580;28;20978;-49
2021/04/18 08:18:42;;;;;;;9.53;3.90;;;9.90;99.90;;;;;;5013869;28;20207;-52
2021/04/18 08:21:32;;;;;;;10.60;4.20;;;10.00;99.90;;;;;;5021504;28;20215;-51
2021/04/18 08:24:01;;;;;;;6.97;3.77;;;10.10;99.90;;;;;;5022343;28;20372;-48
2021/04/18 08:26:28;;;;;;;7.33;3.70;;;10.10;99.90;;;;;;5023237;28;20792;-50
2021/04/18 08:29:06;;;;;;;6.53;3.90;;;10.20;99.90;;;;;;5006754;28;20279;-50
2021/04/18 08:32:06;;;;;;;10.60;4.27;;;10.40;99.90;;;;;;5022461;28;20733;-52
2021/04/18 08:34:34;;;;;;;7.87;3.87;;;10.60;99.90;;;;;;5014397;28;20231;-51
2021/04/18 08:37:03;;;;;;;7.20;4.20;;;10.50;99.90;;;;;;5020468;28;20302;-51
2021/04/18 08:39:36;;;;;;;7.80;4.47;;;10.60;99.90;;;;;;5019823;28;20228;-51
2021/04/18 08:42:05;;;;;;;5.43;3.43;;;10.70;99.90;;;;;;5021376;28;20192;-54
2021/04/18 08:44:43;;;;;;;8.50;4.53;;;10.70;99.90;;;;;;5014372;28;20269;-53
2021/04/18 08:47:11;;;;;;;7.47;4.20;;;10.70;99.90;;;;;;5019024;28;20203;-54
2021/04/18 08:49:42;;;;;;;5.33;3.47;;;10.70;99.90;;;;;;5014964;28;20223;-48
2021/04/18 08:52:10;;;;;;;8.93;3.80;;;10.90;99.90;;;;;;5025066;28;20191;-50
2021/04/18 08:54:39;;;;;;;8.53;4.40;;;11.20;99.90;;;;;;5012293;28;20212;-52
2021/04/18 08:57:07;;;;;;;7.03;3.70;;;11.40;99.90;;;;;;5017959;28;20701;-52
2021/04/18 08:59:34;;;;;;;13.87;4.57;;;11.40;99.90;;;;;;5007654;28;20215;-52
2021/04/18 09:02:04;;;;;;;9.03;4.00;;;11.40;99.90;;;;;;5007555;28;20248;-54
2021/04/18 09:04:33;;;;;;;9.10;4.30;;;11.40;99.90;;;;;;5014000;28;20204;-49
2021/04/18 09:06:59;;;;;;;4.43;3.90;;;11.40;99.90;;;;;;5010628;28;20254;-49
2021/04/18 09:09:28;;;;;;;5.67;3.77;;;11.30;99.90;;;;;;5012644;28;20208;-51
2021/04/18 09:11:55;;;;;;;10.60;4.40;;;11.20;99.90;;;;;;5017233;28;20196;-52
2021/04/18 09:14:27;;;;;;;5.97;4.50;;;11.20;99.90;;;;;;5016402;28;20238;-50
2021/04/18 09:16:53;;;;;;;5.47;3.67;;;11.30;99.90;;;;;;5023126;28;20211;-47
2021/04/18 09:19:28;;;;;;;9.40;4.47;;;11.20;99.90;;;;;;5017674;28;20203;-54
2021/04/18 09:21:56;;;;;;;7.13;4.10;;;11.40;99.90;;;;;;5010502;28;22171;-51
2021/04/18 09:24:22;;;;;;;6.57;4.03;;;11.50;99.90;;;;;;5024437;28;20200;-56
2021/04/18 09:27:01;;;;;;;8.33;4.10;;;11.80;99.90;;;;;;5018792;28;20922;-55
2021/04/18 09:29:28;;;;;;;7.83;4.23;;;11.90;99.90;;;;;;5008035;28;20234;-56
2021/04/18 09:32:04;;;;;;;7.93;4.50;;;11.80;99.90;;;;;;5011699;28;20220;-55
2021/04/18 09:34:30;;;;;;;6.67;4.20;;;12.00;99.90;;;;;;5020477;28;20889;-51
2021/04/18 09:36:58;;;;;;;8.17;4.70;;;12.20;99.90;;;;;;5006903;28;20223;-51
2021/04/18 09:39:27;;;;;;;4.67;4.23;;;12.40;99.90;;;;;;5026085;28;20199;-55
2021/04/18 09:41:54;;;;;;;9.63;4.40;;;12.40;99.90;;;;;;5028102;28;20254;-53
2021/04/18 09:44:28;;;;;;;4.33;3.60;;;12.30;99.90;;;;;;5018060;28;20202;-51
2021/04/18 09:46:55;;;;;;;5.93;4.13;;;12.30;99.90;;;;;;5014811;28;20650;-51
2021/04/18 09:49:22;;;;;;;8.37;4.50;;;12.50;99.90;;;;;;5019921;28;20419;-52
2021/04/18 09:51:57;;;;;;;5.90;3.73;;;12.60;99.90;;;;;;5022144;28;20195;-51
2021/04/18 09:54:28;;;;;;;6.77;4.33;;;12.70;99.90;;;;;;5023183;28;20964;-49
2021/04/18 09:57:14;;;;;;;6.07;4.03;;;12.80;99.90;;;;;;5021529;28;20243;-52
2021/04/18 09:59:41;;;;;;;4.70;3.67;;;12.90;99.90;;;;;;5010524;28;20224;-54
2021/04/18 10:02:13;;;;;;;7.00;4.67;;;12.80;99.90;;;;;;5010482;28;20534;-50
2021/04/18 10:04:39;;;;;;;5.70;4.03;;;12.70;99.90;;;;;;5016048;28;20877;-49
2021/04/18 10:07:05;;;;;;;4.73;3.87;;;12.60;99.90;;;;;;5011407;28;20208;-50
2021/04/18 10:09:53;;;;;;;4.27;3.90;;;12.70;99.90;;;;;;5019660;28;20192;-53
2021/04/18 10:12:20;;;;;;;5.17;4.30;;;12.90;99.90;;;;;;5016642;28;20251;-50
2021/04/18 10:15:03;;;;;;;5.97;4.23;;;13.00;99.90;;;;;;5022634;28;20277;-51
2021/04/18 10:17:33;;;;;;;4.70;3.70;;;13.00;99.90;;;;;;5002167;28;20685;-52
2021/04/18 10:20:00;;;;;;;4.03;3.63;;;12.90;99.90;;;;;;5027299;28;20222;-52
2021/04/18 10:22:26;;;;;;;6.53;3.60;;;12.90;99.90;;;;;;5011970;28;20207;-50
2021/04/18 10:24:53;;;;;;;4.90;3.90;;;13.10;99.90;;;;;;5028508;28;20200;-49
2021/04/18 10:27:22;;;;;;;7.63;4.43;;;13.30;99.90;;;;;;5019292;28;20339;-50
2021/04/18 10:29:49;;;;;;;7.03;3.93;;;13.40;99.90;;;;;;5018030;28;20224;-51
2021/04/18 10:32:17;;;;;;;7.97;4.60;;;13.40;99.90;;;;;;5008591;28;20209;-53
2021/04/18 10:34:43;;;;;;;5.17;4.30;;;13.60;99.90;;;;;;5022167;28;20243;-53
2021/04/18 10:37:10;;;;;;;6.93;4.67;;;13.50;99.90;;;;;;5019410;28;20219;-54
2021/04/18 10:39:36;;;;;;;6.33;4.80;;;13.40;99.90;;;;;;5019166;28;21528;-51
2021/04/18 10:42:03;;;;;;;5.00;4.03;;;13.40;99.90;;;;;;5026719;28;20587;-52
2021/04/18 10:44:29;;;;;;;7.23;4.20;;;13.40;99.90;;;;;;5023554;28;20196;-51
2021/04/18 10:46:58;;;;;;;5.03;4.27;;;13.40;99.90;;;;;;5019918;28;20265;-49
2021/04/18 10:49:25;;;;;;;9.30;4.50;;;13.60;99.90;;;;;;5011060;28;20211;-49
2021/04/18 10:51:52;;;;;;;7.13;4.00;;;13.60;99.90;;;;;;5013106;28;20204;-52
2021/04/18 10:54:19;;;;;;;5.60;4.30;;;13.70;99.90;;;;;;5016501;28;20208;-49
2021/04/18 10:56:45;;;;;;;8.13;4.37;;;13.80;99.90;;;;;;5025098;28;20267;-52
2021/04/18 10:59:12;;;;;;;7.63;5.03;;;13.70;99.90;;;;;;5029443;28;20199;-51
2021/04/18 11:01:38;;;;;;;5.23;4.43;;;13.90;99.90;;;;;;5020383;28;20220;-52
2021/04/18 11:04:06;;;;;;;8.23;4.83;;;14.10;99.90;;;;;;5021679;28;20199;-51
2021/04/18 11:06:32;;;;;;;7.57;5.10;;;14.30;99.90;;;;;;5016733;28;20917;-52
2021/04/18 11:08:58;;;;;;;7.27;5.23;;;14.40;99.90;;;;;;5016922;28;20199;-49
2021/04/18 11:11:25;;;;;;;6.30;4.43;;;14.40;99.90;;;;;;5025866;28;20219;-49
2021/04/18 11:13:51;;;;;;;6.57;4.77;;;14.40;99.90;;;;;;5027935;28;20246;-54
2021/04/18 11:16:17;;;;;;;5.90;4.67;;;14.40;99.90;;;;;;5026328;28;20242;-53
2021/04/18 11:18:44;;;;;;;6.27;4.57;;;14.50;99.90;;;;;;5000844;28;20222;-56
2021/04/18 11:21:11;;;;;;;8.77;4.90;;;14.60;99.90;;;;;;5023869;28;20215;-50
2021/04/18 11:23:38;;;;;;;6.77;4.90;;;14.60;99.90;;;;;;5012044;28;20224;-56
2021/04/18 11:26:04;;;;;;;10.03;4.90;;;14.80;99.90;;;;;;5013143;28;20196;-56
2021/04/18 11:28:30;;;;;;;6.03;4.93;;;14.80;99.90;;;;;;5018550;28;20190;-54
2021/04/18 11:30:57;;;;;;;9.27;5.37;;;14.90;99.90;;;;;;5018556;28;20633;-52
2021/04/18 11:33:24;;;;;;;6.00;4.87;;;14.90;99.90;;;;;;5020359;28;20251;-52
2021/04/18 11:35:50;;;;;;;5.13;4.57;;;14.80;99.90;;;;;;5002387;28;20211;-53
2021/04/18 11:38:17;;;;;;;6.17;5.23;;;14.80;99.90;;;;;;5017455;28;20208;-53
2021/04/18 11:40:43;;;;;;;6.83;4.80;;;14.80;99.90;;;;;;5008388;28;20246;-50
2021/04/18 11:43:09;;;;;;;5.73;5.03;;;14.80;99.90;;;;;;5026253;28;20568;-52
2021/04/18 11:45:36;;;;;;;6.90;5.10;;;14.60;99.90;;;;;;5022590;28;20188;-55
2021/04/18 11:48:02;;;;;;;10.27;5.33;;;14.40;99.90;;;;;;5019783;28;20673;-54
2021/04/18 11:50:28;;;;;;;10.57;5.37;;;14.40;99.90;;;;;;5009077;28;20223;-51
2021/04/18 11:52:55;;;;;;;7.00;4.97;;;14.30;99.90;;;;;;5019423;28;20216;-50
2021/04/18 11:55:24;;;;;;;9.07;5.20;;;14.40;99.90;;;;;;5013285;28;20630;-51
2021/04/18 11:57:50;;;;;;;7.80;5.43;;;14.40;99.90;;;;;;5033633;28;20664;-51
2021/04/18 12:00:18;;;;;;;7.03;5.00;;;14.40;99.90;;;;;;5024470;28;20608;-51
2021/04/18 12:02:44;;;;;;;8.40;5.50;;;14.50;99.90;;;;;;5016713;28;20219;-49
2021/04/18 12:05:12;;;;;;;8.13;5.87;;;14.60;99.90;;;;;;5020827;28;20279;-49
2021/04/18 12:07:39;;;;;;;9.53;5.30;;;14.80;99.90;;;;;;5009195;28;20208;-50
2021/04/18 12:10:06;;;;;;;7.23;5.80;;;14.90;99.90;;;;;;5024482;28;20224;-49
2021/04/18 12:12:33;;;;;;;9.50;5.27;;;14.90;99.90;;;;;;5023526;28;20196;-51
2021/04/18 12:15:00;;;;;;;8.27;5.33;;;15.00;99.90;;;;;;5024983;28;20553;-49
2021/04/18 12:17:26;;;;;;;6.80;4.93;;;15.00;99.90;;;;;;5018045;28;20223;-53
2021/04/18 12:19:52;;;;;;;7.83;4.97;;;15.00;99.90;;;;;;5020888;28;20231;-49
2021/04/18 12:22:18;;;;;;;7.67;4.60;;;15.20;99.90;;;;;;5015945;28;20792;-53
2021/04/18 12:24:44;;;;;;;5.50;4.77;;;15.20;99.90;;;;;;5021916;28;20226;-51
2021/04/18 12:27:11;;;;;;;6.43;5.27;;;15.10;99.90;;;;;;5025965;28;20215;-48
2021/04/18 12:29:38;;;;;;;7.37;5.30;;;15.20;99.90;;;;;;5020743;28;20184;-46
2021/04/18 12:32:05;;;;;;;5.73;5.17;;;15.30;99.90;;;;;;5022458;28;20250;-49
2021/04/18 12:34:31;;;;;;;9.07;5.27;;;15.30;99.90;;;;;;5019156;28;21370;-46
2021/04/18 12:36:57;;;;;;;6.33;4.93;;;15.40;99.90;;;;;;5011292;28;20207;-49
2021/04/18 12:39:23;;;;;;;8.67;4.80;;;15.30;99.90;;;;;;5015188;28;20200;-51
2021/04/18 12:41:49;;;;;;;5.83;4.50;;;15.40;99.90;;;;;;5015825;28;20202;-50
2021/04/18 12:44:18;;;;;;;5.00;4.60;;;15.50;99.90;;;;;;5027282;28;20195;-50
2021/04/18 12:46:45;;;;;;;5.97;4.67;;;15.50;99.80;;;;;;5020698;28;20925;-50
2021/04/18 12:49:11;;;;;;;7.10;4.40;;;15.70;99.90;;;;;;5020111;28;20207;-51
2021/04/18 12:51:37;;;;;;;5.07;4.57;;;15.90;99.90;;;;;;5021838;28;20258;-46
2021/04/18 12:54:06;;;;;;;7.27;4.63;;;15.90;99.30;;;;;;5023064;28;20199;-51
2021/04/18 12:56:34;;;;;;;5.80;5.20;;;16.10;98.90;;;;;;5013631;28;20239;-52
2021/04/18 12:59:00;;;;;;;7.57;5.30;;;16.20;98.80;;;;;;5037980;28;20304;-52